createdAt,value
2018-09-19T00:00:32.083Z,99.90
2018-09-19T00:03:00.885Z,99.90
2018-09-19T00:05:29.762Z,99.90
2018-09-19T00:07:58.592Z,99.90
2018-09-19T00:10:27.423Z,99.90
2018-09-19T00:12:56.196Z,99.90
2018-09-19T00:15:25.056Z,99.90
2018-09-19T00:17:53.835Z,99.90
2018-09-19T00:20:22.794Z,99.90
2018-09-19T00:22:51.475Z,99.90
2018-09-19T00:25:20.412Z,99.90
2018-09-19T00:27:49.320Z,99.90
2018-09-19T00:30:18.104Z,99.90
2018-09-19T00:32:47.585Z,99.90
2018-09-19T00:35:16.426Z,99.90
2018-09-19T00:37:45.262Z,99.90
2018-09-19T00:40:14.088Z,99.90
2018-09-19T00:42:42.929Z,99.90
2018-09-19T00:45:12.204Z,99.90
2018-09-19T00:47:40.982Z,99.90
2018-09-19T00:50:09.879Z,99.90
2018-09-19T00:52:38.684Z,99.90
2018-09-19T00:55:07.472Z,99.90
2018-09-19T00:57:36.271Z,99.90
2018-09-19T01:00:06.116Z,99.90
2018-09-19T01:02:35.427Z,99.90
2018-09-19T01:05:05.176Z,99.90
2018-09-19T01:07:33.978Z,99.90
2018-09-19T01:10:02.798Z,99.90
2018-09-19T01:12:31.612Z,99.90
2018-09-19T01:15:00.535Z,99.90
2018-09-19T01:17:29.321Z,99.90
2018-09-19T01:19:58.096Z,99.90
2018-09-19T01:22:26.995Z,99.90
2018-09-19T01:24:55.798Z,99.90
2018-09-19T01:27:24.723Z,99.90
2018-09-19T01:29:53.519Z,99.90
2018-09-19T01:32:22.324Z,99.90
2018-09-19T01:34:51.106Z,99.90
2018-09-19T01:37:19.885Z,99.90
2018-09-19T01:39:48.786Z,99.90
2018-09-19T01:42:17.649Z,99.90
2018-09-19T01:44:46.434Z,99.90
2018-09-19T01:47:15.217Z,99.90
2018-09-19T01:49:44.004Z,99.90
2018-09-19T01:52:12.950Z,99.90
2018-09-19T01:54:41.749Z,99.90
2018-09-19T01:57:10.574Z,99.90
2018-09-19T01:59:39.367Z,99.90
2018-09-19T02:02:08.178Z,99.90
2018-09-19T02:04:37.003Z,99.90
2018-09-19T02:07:06.000Z,99.90
2018-09-19T02:09:34.828Z,99.90
2018-09-19T02:12:03.659Z,99.90
2018-09-19T02:14:32.583Z,99.90
2018-09-19T02:17:01.481Z,99.90
2018-09-19T02:19:30.313Z,99.90
2018-09-19T02:21:59.118Z,99.90
2018-09-19T02:24:27.950Z,99.90
2018-09-19T02:26:56.967Z,99.90
2018-09-19T02:29:25.777Z,99.90
2018-09-19T02:31:54.584Z,99.90
2018-09-19T02:34:23.407Z,99.90
2018-09-19T02:36:52.222Z,99.90
2018-09-19T02:39:21.151Z,99.90
2018-09-19T02:41:49.946Z,99.90
2018-09-19T02:44:18.722Z,99.90
2018-09-19T02:46:47.676Z,99.90
2018-09-19T02:49:16.479Z,99.90
2018-09-19T02:51:45.285Z,99.90
2018-09-19T02:54:14.097Z,99.90
2018-09-19T02:56:42.928Z,99.90
2018-09-19T02:59:14.597Z,99.90
2018-09-19T03:01:43.466Z,99.90
2018-09-19T03:04:12.354Z,99.90
2018-09-19T03:06:41.236Z,99.90
2018-09-19T03:09:10.026Z,99.90
2018-09-19T03:11:38.845Z,99.90
2018-09-19T03:14:07.852Z,99.90
2018-09-19T03:16:36.702Z,99.90
2018-09-19T03:19:05.579Z,99.90
2018-09-19T03:21:34.494Z,99.90
2018-09-19T03:24:03.324Z,99.90
2018-09-19T03:26:32.158Z,99.90
2018-09-19T03:29:00.963Z,99.90
2018-09-19T03:31:29.799Z,99.90
2018-09-19T03:33:58.723Z,99.90
2018-09-19T03:36:27.632Z,99.90
2018-09-19T03:38:56.405Z,99.90
2018-09-19T03:41:25.297Z,99.90
2018-09-19T03:43:54.114Z,99.90
2018-09-19T03:46:22.990Z,99.90
2018-09-19T03:48:51.775Z,99.90
2018-09-19T03:51:20.676Z,99.90
2018-09-19T03:53:49.452Z,99.90
2018-09-19T03:56:18.344Z,99.90
2018-09-19T03:58:47.146Z,99.90
2018-09-19T04:01:15.932Z,99.90
2018-09-19T04:03:44.782Z,99.90
2018-09-19T04:06:13.591Z,99.90
2018-09-19T04:08:42.566Z,99.90
2018-09-19T04:11:11.364Z,99.90
2018-09-19T04:13:40.174Z,99.90
2018-09-19T04:16:09.099Z,99.90
2018-09-19T04:18:37.890Z,99.90
2018-09-19T04:21:06.729Z,99.90
2018-09-19T04:23:35.518Z,99.90
2018-09-19T04:26:04.695Z,99.90
2018-09-19T04:28:33.509Z,99.90
2018-09-19T04:31:02.357Z,99.90
2018-09-19T04:33:31.182Z,99.90
2018-09-19T04:36:00.083Z,99.90
2018-09-19T04:38:28.901Z,99.90
2018-09-19T04:40:57.747Z,99.90
2018-09-19T04:43:26.574Z,99.90
2018-09-19T04:45:55.457Z,99.90
2018-09-19T04:48:24.254Z,99.90
2018-09-19T04:50:53.058Z,99.90
2018-09-19T04:53:21.914Z,99.90
2018-09-19T04:55:50.743Z,99.90
2018-09-19T04:58:19.656Z,99.90
2018-09-19T05:00:48.458Z,99.90
2018-09-19T05:03:17.240Z,99.90
2018-09-19T05:05:46.207Z,99.90
2018-09-19T05:08:14.977Z,99.90
2018-09-19T05:10:43.776Z,99.90
2018-09-19T05:13:12.576Z,99.90
2018-09-19T05:15:41.431Z,99.90
2018-09-19T05:18:10.255Z,99.90
2018-09-19T05:20:39.072Z,99.90
2018-09-19T05:23:07.902Z,99.90
2018-09-19T05:25:36.765Z,99.90
2018-09-19T05:28:05.651Z,99.90
2018-09-19T05:30:34.432Z,99.90
2018-09-19T05:33:03.326Z,99.90
2018-09-19T05:35:32.125Z,99.90
2018-09-19T05:38:00.904Z,99.90
2018-09-19T05:40:29.731Z,99.90
2018-09-19T05:42:58.531Z,99.90
2018-09-19T05:45:27.487Z,99.90
2018-09-19T05:47:56.310Z,99.90
2018-09-19T05:50:25.130Z,99.90
2018-09-19T05:52:53.934Z,99.90
2018-09-19T05:55:22.883Z,99.90
2018-09-19T05:57:51.694Z,99.90
2018-09-19T06:00:25.273Z,99.90
2018-09-19T06:02:57.276Z,99.90
2018-09-19T06:05:26.644Z,99.90
2018-09-19T06:07:55.450Z,99.90
2018-09-19T06:10:24.261Z,99.90
2018-09-19T06:12:53.091Z,99.90
2018-09-19T06:15:21.964Z,99.90
2018-09-19T06:17:50.838Z,99.90
2018-09-19T06:20:19.751Z,99.90
2018-09-19T06:22:48.566Z,99.90
2018-09-19T06:25:17.418Z,99.90
2018-09-19T06:27:46.251Z,99.90
2018-09-19T06:30:15.034Z,99.90
2018-09-19T06:32:43.880Z,99.90
2018-09-19T06:35:12.730Z,99.90
2018-09-19T06:37:41.499Z,99.90
2018-09-19T06:40:10.499Z,99.90
2018-09-19T06:42:39.204Z,99.90
2018-09-19T06:45:08.060Z,99.90
2018-09-19T06:47:36.858Z,99.90
2018-09-19T06:50:05.730Z,99.90
2018-09-19T06:52:34.623Z,99.90
2018-09-19T06:55:03.396Z,99.90
2018-09-19T06:57:32.352Z,99.90
2018-09-19T07:00:01.151Z,99.90
2018-09-19T07:02:29.947Z,99.90
2018-09-19T07:04:59.764Z,99.90
2018-09-19T07:07:28.581Z,99.90
2018-09-19T07:09:57.423Z,99.90
2018-09-19T07:12:26.232Z,99.90
2018-09-19T07:14:55.044Z,99.90
2018-09-19T07:17:23.849Z,99.90
2018-09-19T07:19:52.664Z,99.90
2018-09-19T07:22:21.466Z,99.90
2018-09-19T07:24:50.272Z,99.90
2018-09-19T07:27:19.074Z,99.90
2018-09-19T07:29:47.903Z,99.90
2018-09-19T07:32:16.725Z,99.90
2018-09-19T07:34:45.525Z,99.90
2018-09-19T07:37:14.355Z,99.90
2018-09-19T07:39:43.188Z,99.90
2018-09-19T07:42:11.980Z,99.90
2018-09-19T07:44:40.822Z,99.90
2018-09-19T07:47:09.681Z,99.90
2018-09-19T07:49:38.472Z,99.90
2018-09-19T07:52:07.451Z,99.90
2018-09-19T07:54:36.357Z,99.90
2018-09-19T07:57:05.280Z,99.90
2018-09-19T07:59:34.118Z,99.90
2018-09-19T08:02:02.991Z,99.90
2018-09-19T08:04:31.787Z,99.90
2018-09-19T08:07:00.623Z,99.90
2018-09-19T08:09:29.424Z,99.90
2018-09-19T08:11:58.222Z,99.90
2018-09-19T08:14:27.034Z,99.90
2018-09-19T08:16:55.920Z,99.90
2018-09-19T08:19:24.652Z,99.90
2018-09-19T08:21:53.480Z,99.90
2018-09-19T08:24:22.274Z,99.90
2018-09-19T08:26:51.151Z,99.90
2018-09-19T08:29:19.937Z,99.90
2018-09-19T08:31:48.736Z,99.90
2018-09-19T08:34:17.521Z,99.90
2018-09-19T08:36:46.352Z,99.90
2018-09-19T08:39:15.160Z,99.90
2018-09-19T08:41:43.958Z,99.90
2018-09-19T08:44:12.874Z,99.90
2018-09-19T08:46:41.727Z,99.90
2018-09-19T08:49:10.507Z,99.90
2018-09-19T08:51:39.319Z,99.90
2018-09-19T08:54:08.123Z,99.90
2018-09-19T08:56:37.066Z,99.90
2018-09-19T08:59:09.638Z,99.90
2018-09-19T09:01:39.269Z,99.90
2018-09-19T09:04:08.101Z,99.90
2018-09-19T09:06:36.960Z,99.90
2018-09-19T09:09:07.015Z,99.90
2018-09-19T09:11:36.048Z,99.90
2018-09-19T09:14:04.915Z,99.90
2018-09-19T09:16:33.730Z,99.90
2018-09-19T09:19:02.526Z,99.90
2018-09-19T09:21:31.462Z,99.90
2018-09-19T09:24:00.230Z,99.90
2018-09-19T09:26:29.090Z,99.90
2018-09-19T09:28:57.901Z,99.90
2018-09-19T09:31:26.693Z,99.90
2018-09-19T09:33:55.528Z,99.90
2018-09-19T09:36:24.339Z,99.90
2018-09-19T09:38:53.114Z,99.90
2018-09-19T09:41:21.915Z,99.90
2018-09-19T09:43:50.721Z,99.90
2018-09-19T09:46:19.533Z,99.90
2018-09-19T09:48:48.343Z,99.90
2018-09-19T09:51:17.127Z,99.90
2018-09-19T09:53:45.930Z,99.90
2018-09-19T09:56:14.775Z,99.90
2018-09-19T09:58:43.575Z,99.90
2018-09-19T10:01:12.440Z,99.90
2018-09-19T10:03:41.172Z,99.90
2018-09-19T10:06:10.118Z,99.90
2018-09-19T10:08:38.920Z,99.90
2018-09-19T10:11:08.024Z,99.90
2018-09-19T10:13:36.886Z,99.90
2018-09-19T10:16:05.798Z,99.90
2018-09-19T10:18:34.611Z,99.90
2018-09-19T10:21:03.422Z,99.90
2018-09-19T10:23:32.213Z,99.90
2018-09-19T10:26:01.079Z,99.90
2018-09-19T10:28:29.889Z,99.90
2018-09-19T10:30:58.714Z,99.90
2018-09-19T10:33:27.518Z,99.90
2018-09-19T10:35:56.415Z,99.90
2018-09-19T10:38:25.222Z,99.90
2018-09-19T10:40:54.039Z,99.90
2018-09-19T10:43:22.855Z,99.90
2018-09-19T10:45:51.758Z,99.90
2018-09-19T10:48:20.580Z,99.90
2018-09-19T10:50:49.403Z,99.90
2018-09-19T10:53:18.207Z,99.90
2018-09-19T10:55:47.133Z,99.90
2018-09-19T10:58:15.946Z,99.90
2018-09-19T11:00:44.760Z,99.90
2018-09-19T11:03:13.576Z,99.90
2018-09-19T11:05:42.571Z,99.90
2018-09-19T11:08:11.422Z,99.90
2018-09-19T11:10:40.247Z,99.90
2018-09-19T11:13:09.176Z,99.90
2018-09-19T11:15:38.035Z,99.90
2018-09-19T11:18:06.856Z,99.90
2018-09-19T11:20:35.740Z,99.90
2018-09-19T11:23:04.607Z,99.90
2018-09-19T11:25:33.523Z,99.90
2018-09-19T11:28:02.383Z,99.90
2018-09-19T11:30:31.207Z,99.90
2018-09-19T11:33:00.054Z,99.90
2018-09-19T11:35:29.055Z,99.90
2018-09-19T11:38:00.099Z,99.90
2018-09-19T11:40:28.878Z,99.90
2018-09-19T11:42:57.707Z,98.70
2018-09-19T11:45:26.543Z,98.10
2018-09-19T11:47:55.352Z,99.20
2018-09-19T11:50:24.202Z,98.70
2018-09-19T11:52:53.665Z,97.50
2018-09-19T11:55:22.551Z,98.90
2018-09-19T11:57:51.359Z,97.60
2018-09-19T12:00:22.519Z,95.90
2018-09-19T12:02:56.539Z,96.00
2018-09-19T12:05:25.419Z,95.10
2018-09-19T12:07:54.231Z,94.60
2018-09-19T12:10:23.040Z,94.20
2018-09-19T12:12:51.854Z,94.60
2018-09-19T12:15:20.722Z,93.60
2018-09-19T12:17:49.525Z,93.50
2018-09-19T12:20:18.323Z,94.10
2018-09-19T12:22:47.150Z,95.00
2018-09-19T12:25:15.982Z,95.60
2018-09-19T12:27:44.798Z,95.70
2018-09-19T12:30:13.599Z,95.20
2018-09-19T12:32:42.415Z,93.80
2018-09-19T12:35:11.266Z,95.10
2018-09-19T12:37:40.104Z,95.20
2018-09-19T12:40:09.383Z,93.70
2018-09-19T12:42:38.206Z,94.00
2018-09-19T12:45:07.107Z,94.10
2018-09-19T12:47:35.944Z,95.10
2018-09-19T12:50:04.824Z,94.80
2018-09-19T12:52:34.031Z,96.10
2018-09-19T12:55:02.881Z,95.90
2018-09-19T12:57:31.704Z,94.70
2018-09-19T13:00:00.514Z,95.40
2018-09-19T13:02:29.338Z,95.00
2018-09-19T13:04:58.210Z,95.00
2018-09-19T13:07:27.023Z,95.60
2018-09-19T13:09:55.814Z,94.30
2018-09-19T13:12:24.602Z,95.40
2018-09-19T13:14:53.399Z,95.10
2018-09-19T13:17:22.218Z,95.40
2018-09-19T13:19:51.031Z,95.00
2018-09-19T13:22:19.826Z,95.20
2018-09-19T13:24:48.675Z,97.40
2018-09-19T13:27:17.507Z,97.00
2018-09-19T13:29:58.471Z,98.80
2018-09-19T13:32:27.327Z,99.90
2018-09-19T13:34:56.098Z,99.90
2018-09-19T13:37:24.919Z,99.90
2018-09-19T13:39:53.810Z,99.90
2018-09-19T13:42:22.718Z,99.90
2018-09-19T13:44:51.507Z,99.90
2018-09-19T13:47:20.310Z,99.90
2018-09-19T13:51:02.518Z,99.90
2018-09-19T13:53:31.454Z,99.90
2018-09-19T13:56:00.502Z,99.90
2018-09-19T13:58:29.347Z,99.90
2018-09-19T14:00:58.158Z,99.90
2018-09-19T14:03:27.124Z,99.90
2018-09-19T14:05:55.976Z,99.90
2018-09-19T14:08:24.778Z,99.90
2018-09-19T14:10:53.598Z,99.90
2018-09-19T14:13:22.416Z,99.90
2018-09-19T14:15:51.235Z,99.90
2018-09-19T14:18:20.034Z,99.90
2018-09-19T14:20:48.847Z,99.90
2018-09-19T14:23:17.799Z,99.90
2018-09-19T14:25:46.695Z,99.90
2018-09-19T14:28:15.546Z,99.90
2018-09-19T14:30:44.511Z,99.90
2018-09-19T14:33:13.385Z,99.90
2018-09-19T14:35:42.406Z,99.90
2018-09-19T14:38:11.787Z,99.90
2018-09-19T14:40:40.627Z,99.90
2018-09-19T14:43:09.475Z,99.90
2018-09-19T14:45:38.308Z,99.90
2018-09-19T14:48:07.128Z,99.90
2018-09-19T14:50:35.949Z,99.90
2018-09-19T14:53:04.894Z,99.90
2018-09-19T14:55:33.797Z,99.90
2018-09-19T14:58:02.625Z,99.90
2018-09-19T15:00:33.136Z,99.90
2018-09-19T15:03:02.589Z,99.90
2018-09-19T15:05:31.538Z,99.90
2018-09-19T15:08:00.432Z,99.90
2018-09-19T15:10:29.219Z,99.90
2018-09-19T15:12:58.046Z,99.90
2018-09-19T15:15:26.935Z,99.90
2018-09-19T15:17:55.865Z,99.90
2018-09-19T15:20:24.673Z,99.90
2018-09-19T15:22:53.495Z,99.90
2018-09-19T15:25:22.475Z,99.90
2018-09-19T15:27:51.295Z,99.90
2018-09-19T15:30:20.124Z,99.90
2018-09-19T15:32:48.953Z,99.90
2018-09-19T15:35:17.791Z,99.90
2018-09-19T15:37:46.603Z,99.90
2018-09-19T15:40:15.454Z,99.90
2018-09-19T15:42:44.254Z,99.90
2018-09-19T15:45:13.152Z,99.90
2018-09-19T15:47:42.083Z,99.90
2018-09-19T15:50:10.915Z,99.90
2018-09-19T15:52:39.707Z,99.90
2018-09-19T15:55:08.647Z,99.90
2018-09-19T15:57:37.479Z,99.90
2018-09-19T16:00:07.723Z,99.90
2018-09-19T16:02:36.954Z,99.90
2018-09-19T16:05:05.845Z,99.90
2018-09-19T16:07:34.738Z,99.90
2018-09-19T16:10:03.638Z,99.90
2018-09-19T16:12:32.483Z,99.90
2018-09-19T16:15:01.402Z,99.90
2018-09-19T16:17:30.210Z,99.90
2018-09-19T16:19:59.854Z,99.90
2018-09-19T16:22:28.719Z,99.90
2018-09-19T16:24:57.704Z,99.90
2018-09-19T16:27:26.515Z,99.90
2018-09-19T16:29:55.327Z,99.90
2018-09-19T16:32:24.267Z,99.90
2018-09-19T16:34:54.058Z,99.90
2018-09-19T16:37:22.932Z,99.90
2018-09-19T16:39:51.788Z,99.90
2018-09-19T16:42:20.611Z,99.90
2018-09-19T16:44:50.292Z,99.90
2018-09-19T16:47:19.208Z,99.90
2018-09-19T16:49:48.124Z,99.90
2018-09-19T16:52:16.962Z,99.90
2018-09-19T16:54:45.786Z,99.90
2018-09-19T16:57:14.739Z,99.90
2018-09-19T16:59:46.532Z,99.90
2018-09-19T17:02:15.392Z,99.90
2018-09-19T17:04:44.258Z,99.90
2018-09-19T17:07:13.110Z,99.90
2018-09-19T17:09:41.931Z,99.90
2018-09-19T17:12:10.750Z,99.90
2018-09-19T17:14:41.695Z,99.90
2018-09-19T17:17:12.508Z,99.90
2018-09-19T17:19:41.363Z,99.90
2018-09-19T17:22:15.215Z,99.90
2018-09-19T17:24:44.112Z,99.90
2018-09-19T17:27:13.047Z,99.90
2018-09-19T17:29:42.083Z,99.90
2018-09-19T17:32:10.970Z,99.90
2018-09-19T17:34:39.935Z,99.90
2018-09-19T17:37:08.873Z,99.90
2018-09-19T17:39:37.965Z,99.90
2018-09-19T17:42:07.647Z,99.90
2018-09-19T17:44:36.533Z,99.90
2018-09-19T17:47:06.204Z,99.90
2018-09-19T17:49:35.146Z,99.90
2018-09-19T17:52:04.694Z,99.90
2018-09-19T17:54:33.603Z,99.90
2018-09-19T17:57:04.511Z,99.90
2018-09-19T17:59:33.381Z,99.90
2018-09-19T18:02:02.478Z,99.90
2018-09-19T18:04:31.487Z,99.90
2018-09-19T18:07:00.552Z,99.90
2018-09-19T18:09:30.219Z,99.90
2018-09-19T18:11:59.129Z,99.90
2018-09-19T18:14:27.987Z,99.90
2018-09-19T18:16:56.939Z,99.90
2018-09-19T18:19:25.767Z,99.90
2018-09-19T18:21:54.679Z,99.90
2018-09-19T18:24:23.560Z,99.90
2018-09-19T18:26:52.483Z,99.90
2018-09-19T18:29:22.196Z,99.90
2018-09-19T18:31:51.049Z,99.90
2018-09-19T18:34:19.936Z,99.90
2018-09-19T18:36:48.846Z,99.90
2018-09-19T18:39:18.330Z,99.90
2018-09-19T18:41:47.638Z,99.90
2018-09-19T18:44:16.459Z,99.90
2018-09-19T18:46:45.346Z,99.90
2018-09-19T18:49:14.207Z,99.90
2018-09-19T18:51:43.635Z,99.90
2018-09-19T18:54:12.565Z,99.90
2018-09-19T18:56:41.872Z,99.90
2018-09-19T18:59:13.418Z,99.90
2018-09-19T19:01:42.330Z,99.90
2018-09-19T19:04:11.459Z,99.90
2018-09-19T19:06:40.363Z,99.90
2018-09-19T19:09:10.187Z,99.90
2018-09-19T19:11:39.013Z,99.90
2018-09-19T19:14:08.826Z,99.90
2018-09-19T19:16:37.839Z,99.90
2018-09-19T19:19:06.687Z,99.90
2018-09-19T19:21:35.545Z,99.90
2018-09-19T19:24:05.664Z,99.90
2018-09-19T19:26:34.554Z,99.90
2018-09-19T19:29:03.995Z,99.90
2018-09-19T19:31:32.838Z,99.90
2018-09-19T19:34:02.824Z,99.90
2018-09-19T19:36:32.785Z,99.90
2018-09-19T19:39:01.615Z,99.90
2018-09-19T19:41:30.702Z,99.90
2018-09-19T19:43:59.531Z,99.90
2018-09-19T19:46:30.155Z,99.90
2018-09-19T19:48:59.000Z,99.90
2018-09-19T19:51:27.850Z,99.90
2018-09-19T19:53:56.707Z,99.90
2018-09-19T19:56:26.903Z,99.90
2018-09-19T19:58:58.090Z,99.90
2018-09-19T20:01:26.943Z,99.90
2018-09-19T20:03:55.768Z,99.90
2018-09-19T20:06:25.527Z,99.90
2018-09-19T20:08:54.362Z,99.90
2018-09-19T20:11:23.326Z,99.90
2018-09-19T20:13:52.555Z,99.90
2018-09-19T20:16:21.498Z,99.90
2018-09-19T20:18:50.340Z,99.90
2018-09-19T20:21:19.175Z,99.90
2018-09-19T20:23:48.859Z,99.90
2018-09-19T20:26:17.866Z,99.90
2018-09-19T20:28:46.727Z,99.90
2018-09-19T20:31:15.602Z,99.90
2018-09-19T20:33:44.424Z,99.90
2018-09-19T20:36:13.414Z,99.90
2018-09-19T20:38:42.394Z,99.90
2018-09-19T20:41:11.287Z,99.90
2018-09-19T20:43:40.111Z,99.90
2018-09-19T20:46:09.095Z,99.90
2018-09-19T20:48:37.938Z,99.90
2018-09-19T20:51:09.843Z,99.90
2018-09-19T20:53:38.680Z,99.90
2018-09-19T20:56:08.020Z,99.90
2018-09-19T20:58:37.411Z,99.90
2018-09-19T21:01:06.523Z,99.90
2018-09-19T21:03:35.366Z,99.90
2018-09-19T21:06:04.312Z,99.90
2018-09-19T21:08:33.314Z,99.90
2018-09-19T21:11:02.175Z,99.90
2018-09-19T21:13:30.985Z,99.90
2018-09-19T21:15:59.889Z,99.90
2018-09-19T21:18:29.503Z,99.90
2018-09-19T21:20:58.795Z,99.90
2018-09-19T21:23:27.635Z,99.90
2018-09-19T21:25:56.552Z,99.90
2018-09-19T21:28:25.408Z,99.90
2018-09-19T21:30:54.392Z,99.90
2018-09-19T21:33:23.311Z,99.90
2018-09-19T21:35:52.669Z,99.90
2018-09-19T21:38:21.686Z,99.90
2018-09-19T21:41:02.428Z,99.90
2018-09-19T21:43:31.360Z,99.90
2018-09-19T21:46:00.252Z,99.90
2018-09-19T21:48:29.139Z,99.90
2018-09-19T21:50:57.970Z,99.90
2018-09-19T21:53:27.786Z,99.90
2018-09-19T21:55:57.454Z,99.90
2018-09-19T21:58:26.315Z,99.90
2018-09-19T22:01:00.818Z,99.90
2018-09-19T22:03:29.641Z,99.90
2018-09-19T22:05:58.612Z,99.90
2018-09-19T22:08:27.535Z,99.90
2018-09-19T22:10:56.352Z,99.90
2018-09-19T22:13:25.178Z,99.90
2018-09-19T22:15:54.902Z,99.90
2018-09-19T22:18:24.399Z,99.90
2018-09-19T22:20:54.306Z,99.90
2018-09-19T22:23:23.183Z,99.90
2018-09-19T22:25:52.023Z,99.90
2018-09-19T22:28:21.175Z,99.90
2018-09-19T22:30:49.984Z,99.90
2018-09-19T22:33:18.809Z,99.90
2018-09-19T22:35:47.650Z,99.90
2018-09-19T22:38:16.481Z,99.90
2018-09-19T22:40:45.395Z,99.90
2018-09-19T22:43:14.176Z,99.90
2018-09-19T22:45:43.034Z,99.90
2018-09-19T22:48:11.906Z,99.90
2018-09-19T22:50:40.769Z,99.90
2018-09-19T22:53:09.571Z,99.90
2018-09-19T22:55:38.364Z,99.90
2018-09-19T22:58:07.274Z,99.90
2018-09-19T23:00:36.122Z,99.90
2018-09-19T23:03:05.218Z,99.90
2018-09-19T23:05:34.079Z,99.90
2018-09-19T23:08:02.886Z,99.90
2018-09-19T23:10:31.807Z,99.90
2018-09-19T23:13:00.634Z,99.90
2018-09-19T23:15:29.564Z,99.90
2018-09-19T23:17:58.375Z,99.90
2018-09-19T23:20:27.206Z,99.90
2018-09-19T23:22:56.014Z,99.90
2018-09-19T23:25:24.879Z,99.90
2018-09-19T23:27:53.811Z,99.90
2018-09-19T23:30:22.662Z,99.90
2018-09-19T23:32:51.459Z,99.90
2018-09-19T23:35:20.415Z,99.90
2018-09-19T23:37:49.198Z,99.90
2018-09-19T23:40:18.008Z,99.90
2018-09-19T23:42:46.851Z,99.90
2018-09-19T23:45:15.736Z,99.90
2018-09-19T23:47:44.562Z,99.90
2018-09-19T23:50:13.441Z,99.90
2018-09-19T23:52:42.238Z,99.90
2018-09-19T23:55:11.068Z,99.90
2018-09-19T23:57:40.057Z,99.90
